首页
METAR-TAF:

METAR-TAF

机场 :

夏延, 怀俄明州, 美国

纬度: 41-09-28N, 经度: 104-48-25W, 海拔: 1876米

当前天气观测

该预报发布于31分钟前的16:53 UTC
风速12节,风向西转西南
温度 30°C
湿度 17%
气压 1021 hPa
能見度: 16.1公里
天空无云

METAR: KCYS 011653Z 25012KT 10SM CLR 30/02 A3016 RMK AO2 SLP115 T03000022

时间: 11:24 (17:24 UTC)

预报

该预报发布于6小时和1分钟前的11:23 UTC
预报有效从01日的 12点(UTC)到 02日的 12点(UTC)
风速7节,风向西
能見度: 10公里
散云层高于15000英尺
从 01日的 1800点(UTC)
风速12节,风向西,有时为20节阵风
能見度: 10公里
散云层高于25000英尺
从 02日的 0100点(UTC)
风速12节,风向
能見度: 10公里
散云层高于9000英尺

TAF: KCYS 011123Z 0112/0212 26007KT P6SM SCT150 FM011800 26012G20KT P6SM SCT250 FM020100 19012KT P6SM SCT090

超过4000个机场的气象观测和天气预报(METAR&TAF报告)。

可查询的气象台以黄色和红色小点在地图上表示。

将鼠标移到小点上方,可查看气象台名称。

然后点击查看天气观测和预报。

如需切换地图:点击带黑十字的绿色按钮放大地图;点击带横线的绿色按钮缩小地图;或者点击绿色箭头查看邻近地区的地图。


METAR-TAF: